Fort Wayne, Indiana
Current Conditions -  °F | °C
As of 1:54 AM on Friday 31 Oct 2014 (Local Time) from KFWA Reporting Station
Broken Clouds Broken Clouds  
Wind Chill: 39°   Ceiling: 4700
Heat Index: 42°   Visibility: 10mi
Dew Point: 37°   Wind: 5mph
Humidity: 82%   Direction: 230°SW
Pressure: 30.02"   Gusts: NA
Location:  41.08°N, 85.1°W
Report Text: KFWA 310554Z 23004KT 10SM BKN047 BKN080 BKN150 06/03 A3002 RMK AO2 SLP171 T00560028 10078 20056 58010
Loading
Personal Weather Stations






























Interactive Weather Map New forecast layout! Learn more

10-Day Weather Forecast

Advertisements
Track Severe Weather on mobile